sensor_id;sensor_type;location;lat;lon;timestamp;pressure;altitude;pressure_sealevel;temperature;humidity
46392;BME280;32098;49.448;7.904;2024-01-25T00:00:20;99374.19;;;9.30;77.68
46392;BME280;32098;49.448;7.904;2024-01-25T00:02:48;99365.59;;;9.28;77.35
46392;BME280;32098;49.448;7.904;2024-01-25T00:05:14;99369.72;;;9.30;77.15
46392;BME280;32098;49.448;7.904;2024-01-25T00:07:48;99367.34;;;9.36;77.33
46392;BME280;32098;49.448;7.904;2024-01-25T00:10:17;99366.91;;;9.32;77.12
46392;BME280;32098;49.448;7.904;2024-01-25T00:12:45;99313.00;;;9.01;77.25
46392;BME280;32098;49.448;7.904;2024-01-25T00:15:12;99361.19;;;9.35;76.62
46392;BME280;32098;49.448;7.904;2024-01-25T00:17:39;99355.72;;;9.37;76.83
46392;BME280;32098;49.448;7.904;2024-01-25T00:20:06;99327.53;;;9.13;77.30
46392;BME280;32098;49.448;7.904;2024-01-25T00:22:35;99357.72;;;9.35;76.92
46392;BME280;32098;49.448;7.904;2024-01-25T00:25:03;99344.59;;;9.18;77.16
46392;BME280;32098;49.448;7.904;2024-01-25T00:27:30;99367.41;;;9.27;77.13
46392;BME280;32098;49.448;7.904;2024-01-25T00:29:57;99360.81;;;9.23;77.35
46392;BME280;32098;49.448;7.904;2024-01-25T00:32:23;99360.75;;;9.32;77.24
46392;BME280;32098;49.448;7.904;2024-01-25T00:34:50;99360.19;;;9.36;76.97
46392;BME280;32098;49.448;7.904;2024-01-25T00:37:17;99361.38;;;9.34;77.05
46392;BME280;32098;49.448;7.904;2024-01-25T00:39:44;99355.59;;;9.30;77.01
46392;BME280;32098;49.448;7.904;2024-01-25T00:42:12;99358.72;;;9.34;76.79
46392;BME280;32098;49.448;7.904;2024-01-25T00:44:40;99352.31;;;9.28;77.33
46392;BME280;32098;49.448;7.904;2024-01-25T00:47:07;99365.22;;;9.31;77.21
46392;BME280;32098;49.448;7.904;2024-01-25T00:49:35;99341.34;;;9.08;77.48
46392;BME280;32098;49.448;7.904;2024-01-25T00:52:02;99333.91;;;9.04;77.66
46392;BME280;32098;49.448;7.904;2024-01-25T00:54:30;99368.69;;;9.17;77.90
46392;BME280;32098;49.448;7.904;2024-01-25T00:56:57;99358.72;;;9.19;77.40
46392;BME280;32098;49.448;7.904;2024-01-25T00:59:23;99348.94;;;9.11;77.70
46392;BME280;32098;49.448;7.904;2024-01-25T01:01:52;99343.16;;;9.08;77.48
46392;BME280;32098;49.448;7.904;2024-01-25T01:04:20;99355.13;;;9.12;77.86
46392;BME280;32098;49.448;7.904;2024-01-25T01:06:47;99348.13;;;9.11;77.82
46392;BME280;32098;49.448;7.904;2024-01-25T01:09:14;99296.69;;;8.89;78.09
46392;BME280;32098;49.448;7.904;2024-01-25T01:11:41;99332.53;;;9.08;77.71
46392;BME280;32098;49.448;7.904;2024-01-25T01:14:08;99338.16;;;9.13;77.91
46392;BME280;32098;49.448;7.904;2024-01-25T01:16:34;99351.44;;;9.13;78.12
46392;BME280;32098;49.448;7.904;2024-01-25T01:19:02;99348.13;;;9.11;77.72
46392;BME280;32098;49.448;7.904;2024-01-25T01:21:33;99344.78;;;9.17;77.29
46392;BME280;32098;49.448;7.904;2024-01-25T01:24:01;99355.13;;;9.12;77.67
46392;BME280;32098;49.448;7.904;2024-01-25T01:26:28;99350.13;;;9.09;77.32
46392;BME280;32098;49.448;7.904;2024-01-25T01:28:55;99356.44;;;9.08;77.91
46392;BME280;32098;49.448;7.904;2024-01-25T01:31:22;99350.00;;;9.02;77.56
46392;BME280;32098;49.448;7.904;2024-01-25T01:33:49;99347.00;;;9.05;77.49
46392;BME280;32098;49.448;7.904;2024-01-25T01:36:15;99314.47;;;8.89;77.73
46392;BME280;32098;49.448;7.904;2024-01-25T01:38:42;99349.81;;;9.12;77.20
46392;BME280;32098;49.448;7.904;2024-01-25T01:41:10;99351.59;;;9.11;77.68
46392;BME280;32098;49.448;7.904;2024-01-25T01:43:39;99328.75;;;9.02;77.26
46392;BME280;32098;49.448;7.904;2024-01-25T01:46:20;99353.97;;;9.06;76.78
46392;BME280;32098;49.448;7.904;2024-01-25T01:48:51;99363.22;;;9.10;77.37
46392;BME280;32098;49.448;7.904;2024-01-25T01:51:18;99357.81;;;9.04;76.69
46392;BME280;32098;49.448;7.904;2024-01-25T01:53:45;99355.88;;;8.98;76.78
46392;BME280;32098;49.448;7.904;2024-01-25T01:56:14;99339.69;;;8.85;77.39
46392;BME280;32098;49.448;7.904;2024-01-25T01:58:41;99321.56;;;8.74;76.85
46392;BME280;32098;49.448;7.904;2024-01-25T02:01:08;99367.59;;;9.03;77.43
46392;BME280;32098;49.448;7.904;2024-01-25T02:03:35;99366.63;;;9.04;77.20
46392;BME280;32098;49.448;7.904;2024-01-25T02:06:02;99331.09;;;8.83;76.55
46392;BME280;32098;49.448;7.904;2024-01-25T02:08:29;99365.44;;;9.07;77.06
46392;BME280;32098;49.448;7.904;2024-01-25T02:10:56;99363.66;;;8.99;76.70
46392;BME280;32098;49.448;7.904;2024-01-25T02:13:24;99366.78;;;9.03;76.41
46392;BME280;32098;49.448;7.904;2024-01-25T02:15:51;99325.97;;;8.81;76.16
46392;BME280;32098;49.448;7.904;2024-01-25T02:18:18;99368.78;;;9.01;76.91
46392;BME280;32098;49.448;7.904;2024-01-25T02:20:45;99365.50;;;8.99;76.55
46392;BME280;32098;49.448;7.904;2024-01-25T02:23:11;99371.25;;;9.02;76.37
46392;BME280;32098;49.448;7.904;2024-01-25T02:25:38;99374.09;;;9.01;76.94
46392;BME280;32098;49.448;7.904;2024-01-25T02:28:05;99366.84;;;8.95;76.78
46392;BME280;32098;49.448;7.904;2024-01-25T02:30:32;99368.69;;;8.94;76.52
46392;BME280;32098;49.448;7.904;2024-01-25T02:32:58;99368.56;;;8.88;76.95
46392;BME280;32098;49.448;7.904;2024-01-25T02:35:25;99380.56;;;8.84;77.09
46392;BME280;32098;49.448;7.904;2024-01-25T02:37:52;99375.25;;;8.84;76.45
46392;BME280;32098;49.448;7.904;2024-01-25T02:40:18;99390.88;;;8.79;77.32
46392;BME280;32098;49.448;7.904;2024-01-25T02:42:45;99380.25;;;8.79;77.15
46392;BME280;32098;49.448;7.904;2024-01-25T02:45:13;99387.56;;;8.77;77.22
46392;BME280;32098;49.448;7.904;2024-01-25T02:47:39;99397.81;;;8.80;77.59
46392;BME280;32098;49.448;7.904;2024-01-25T02:50:07;99407.16;;;8.76;77.64
46392;BME280;32098;49.448;7.904;2024-01-25T02:52:33;99397.81;;;8.80;77.09
46392;BME280;32098;49.448;7.904;2024-01-25T02:55:00;99381.97;;;8.72;77.30
46392;BME280;32098;49.448;7.904;2024-01-25T02:57:27;99383.16;;;8.69;78.25
46392;BME280;32098;49.448;7.904;2024-01-25T02:59:54;99379.47;;;8.70;77.98
46392;BME280;32098;49.448;7.904;2024-01-25T03:02:20;99382.97;;;8.71;77.75
46392;BME280;32098;49.448;7.904;2024-01-25T03:04:48;99369.09;;;8.60;77.92
46392;BME280;32098;49.448;7.904;2024-01-25T03:07:15;99386.97;;;8.66;78.22
46392;BME280;32098;49.448;7.904;2024-01-25T03:09:41;99377.25;;;8.59;77.89
46392;BME280;32098;49.448;7.904;2024-01-25T03:12:08;99382.69;;;8.57;77.91
46392;BME280;32098;49.448;7.904;2024-01-25T03:14:35;99349.66;;;8.37;78.08
46392;BME280;32098;49.448;7.904;2024-01-25T03:17:01;99388.00;;;8.57;78.38
46392;BME280;32098;49.448;7.904;2024-01-25T03:19:28;99383.72;;;8.56;78.42
46392;BME280;32098;49.448;7.904;2024-01-25T03:21:55;99383.06;;;8.54;78.95
46392;BME280;32098;49.448;7.904;2024-01-25T03:24:22;99384.72;;;8.55;78.25
46392;BME280;32098;49.448;7.904;2024-01-25T03:26:48;99392.69;;;8.55;78.83
46392;BME280;32098;49.448;7.904;2024-01-25T03:29:15;99386.53;;;8.55;78.16
46392;BME280;32098;49.448;7.904;2024-01-25T03:31:42;99380.47;;;8.46;78.46
46392;BME280;32098;49.448;7.904;2024-01-25T03:34:08;99384.22;;;8.52;78.36
46392;BME280;32098;49.448;7.904;2024-01-25T03:36:37;99389.41;;;8.45;78.54
46392;BME280;32098;49.448;7.904;2024-01-25T03:39:05;99393.44;;;8.41;78.73
46392;BME280;32098;49.448;7.904;2024-01-25T03:41:32;99397.91;;;8.41;79.00
46392;BME280;32098;49.448;7.904;2024-01-25T03:43:58;99386.00;;;8.37;78.64
46392;BME280;32098;49.448;7.904;2024-01-25T03:46:25;99384.97;;;8.38;78.97
46392;BME280;32098;49.448;7.904;2024-01-25T03:48:52;99399.13;;;8.30;78.73
46392;BME280;32098;49.448;7.904;2024-01-25T03:51:21;99395.81;;;8.28;79.11
46392;BME280;32098;49.448;7.904;2024-01-25T03:53:50;99394.13;;;8.35;79.03
46392;BME280;32098;49.448;7.904;2024-01-25T03:56:19;99389.03;;;8.26;78.64
46392;BME280;32098;49.448;7.904;2024-01-25T03:58:46;99405.78;;;8.26;79.36
46392;BME280;32098;49.448;7.904;2024-01-25T04:01:13;99405.78;;;8.26;78.75
46392;BME280;32098;49.448;7.904;2024-01-25T04:03:40;99402.00;;;8.21;78.94
46392;BME280;32098;49.448;7.904;2024-01-25T04:06:08;99411.75;;;8.20;79.23
46392;BME280;32098;49.448;7.904;2024-01-25T04:08:34;99415.25;;;8.21;79.55
46392;BME280;32098;49.448;7.904;2024-01-25T04:11:01;99401.19;;;8.12;79.36
46392;BME280;32098;49.448;7.904;2024-01-25T04:13:28;99423.41;;;8.19;79.14
46392;BME280;32098;49.448;7.904;2024-01-25T04:15:55;99418.72;;;8.21;79.13
46392;BME280;32098;49.448;7.904;2024-01-25T04:18:21;99406.47;;;8.12;78.76
46392;BME280;32098;49.448;7.904;2024-01-25T04:20:48;99399.91;;;8.00;78.88
46392;BME280;32098;49.448;7.904;2024-01-25T04:23:17;99412.16;;;8.09;78.92
46392;BME280;32098;49.448;7.904;2024-01-25T04:25:44;99421.06;;;8.16;79.15
46392;BME280;32098;49.448;7.904;2024-01-25T04:28:10;99424.72;;;8.15;79.07
46392;BME280;32098;49.448;7.904;2024-01-25T04:30:37;99437.31;;;8.13;78.79
46392;BME280;32098;49.448;7.904;2024-01-25T04:33:04;99436.50;;;8.13;77.99
46392;BME280;32098;49.448;7.904;2024-01-25T04:35:31;99431.84;;;8.15;78.39
46392;BME280;32098;49.448;7.904;2024-01-25T04:37:58;99413.69;;;7.95;78.29
46392;BME280;32098;49.448;7.904;2024-01-25T04:40:25;99432.06;;;7.97;78.41
46392;BME280;32098;49.448;7.904;2024-01-25T04:42:51;99436.19;;;8.08;77.90
46392;BME280;32098;49.448;7.904;2024-01-25T04:45:18;99436.69;;;8.03;78.21
46392;BME280;32098;49.448;7.904;2024-01-25T04:47:45;99439.38;;;7.95;78.65
46392;BME280;32098;49.448;7.904;2024-01-25T04:50:12;99449.00;;;7.96;78.95
46392;BME280;32098;49.448;7.904;2024-01-25T04:52:39;99449.63;;;7.98;78.75
46392;BME280;32098;49.448;7.904;2024-01-25T04:55:05;99449.63;;;7.98;78.49
46392;BME280;32098;49.448;7.904;2024-01-25T04:57:32;99460.75;;;7.93;78.67
46392;BME280;32098;49.448;7.904;2024-01-25T04:59:59;99442.41;;;7.76;78.68
46392;BME280;32098;49.448;7.904;2024-01-25T05:02:25;99462.44;;;7.86;78.93
46392;BME280;32098;49.448;7.904;2024-01-25T05:04:52;99469.88;;;7.91;78.33
46392;BME280;32098;49.448;7.904;2024-01-25T05:07:19;99451.19;;;7.76;78.58
46392;BME280;32098;49.448;7.904;2024-01-25T05:09:55;99466.56;;;7.89;79.06
46392;BME280;32098;49.448;7.904;2024-01-25T05:12:21;99477.97;;;7.89;78.64
46392;BME280;32098;49.448;7.904;2024-01-25T05:14:48;99473.84;;;7.87;79.07
46392;BME280;32098;49.448;7.904;2024-01-25T05:17:15;99464.41;;;7.84;78.95
46392;BME280;32098;49.448;7.904;2024-01-25T05:19:41;99475.50;;;7.88;78.54
46392;BME280;32098;49.448;7.904;2024-01-25T05:22:08;99476.19;;;7.82;78.57
46392;BME280;32098;49.448;7.904;2024-01-25T05:24:35;99444.75;;;7.63;78.67
46392;BME280;32098;49.448;7.904;2024-01-25T05:27:03;99447.25;;;7.56;78.82
46392;BME280;32098;49.448;7.904;2024-01-25T05:29:29;99483.47;;;7.80;78.54
46392;BME280;32098;49.448;7.904;2024-01-25T05:31:56;99482.00;;;7.77;78.66
46392;BME280;32098;49.448;7.904;2024-01-25T05:34:24;99491.09;;;7.75;78.55
46392;BME280;32098;49.448;7.904;2024-01-25T05:36:51;99490.78;;;7.78;78.23
46392;BME280;32098;49.448;7.904;2024-01-25T05:39:18;99496.72;;;7.72;78.72
46392;BME280;32098;49.448;7.904;2024-01-25T05:41:45;99497.75;;;7.63;78.62
46392;BME280;32098;49.448;7.904;2024-01-25T05:44:12;99508.66;;;7.60;78.35
46392;BME280;32098;49.448;7.904;2024-01-25T05:46:39;99475.53;;;7.23;77.64
46392;BME280;32098;49.448;7.904;2024-01-25T05:49:06;99510.00;;;7.31;77.53
46392;BME280;32098;49.448;7.904;2024-01-25T05:51:33;99519.56;;;7.24;78.11
46392;BME280;32098;49.448;7.904;2024-01-25T05:54:00;99484.66;;;7.69;93.43
46392;BME280;32098;49.448;7.904;2024-01-25T05:56:27;99514.56;;;8.18;90.02
46392;BME280;32098;49.448;7.904;2024-01-25T05:58:53;99513.16;;;8.46;85.93
46392;BME280;32098;49.448;7.904;2024-01-25T06:01:20;99512.78;;;8.88;83.84
46392;BME280;32098;49.448;7.904;2024-01-25T06:03:47;99516.66;;;8.78;74.66
46392;BME280;32098;49.448;7.904;2024-01-25T06:06:13;99519.94;;;8.49;72.85
46392;BME280;32098;49.448;7.904;2024-01-25T06:08:40;99522.41;;;7.87;73.94
46392;BME280;32098;49.448;7.904;2024-01-25T06:11:08;99523.75;;;7.43;74.10
46392;BME280;32098;49.448;7.904;2024-01-25T06:13:36;99531.44;;;7.04;75.65
46392;BME280;32098;49.448;7.904;2024-01-25T06:16:03;99531.75;;;6.93;76.29
46392;BME280;32098;49.448;7.904;2024-01-25T06:18:29;99527.63;;;6.99;77.25
46392;BME280;32098;49.448;7.904;2024-01-25T06:20:56;99520.16;;;6.94;77.99
46392;BME280;32098;49.448;7.904;2024-01-25T06:23:23;99505.28;;;6.93;79.47
46392;BME280;32098;49.448;7.904;2024-01-25T06:25:49;99470.81;;;6.69;79.42
46392;BME280;32098;49.448;7.904;2024-01-25T06:28:16;99509.28;;;7.05;79.21
46392;BME280;32098;49.448;7.904;2024-01-25T06:30:44;99509.75;;;6.93;80.01
46392;BME280;32098;49.448;7.904;2024-01-25T06:33:11;99467.16;;;6.62;79.47
46392;BME280;32098;49.448;7.904;2024-01-25T06:35:38;99502.59;;;6.85;79.74
46392;BME280;32098;49.448;7.904;2024-01-25T06:38:04;99507.59;;;6.88;79.81
46392;BME280;32098;49.448;7.904;2024-01-25T06:40:31;99512.56;;;6.91;79.86
46392;BME280;32098;49.448;7.904;2024-01-25T06:42:58;99514.50;;;6.89;80.76
46392;BME280;32098;49.448;7.904;2024-01-25T06:45:24;99518.50;;;6.85;81.03
46392;BME280;32098;49.448;7.904;2024-01-25T06:47:51;99517.00;;;6.83;80.45
46392;BME280;32098;49.448;7.904;2024-01-25T06:50:17;99516.81;;;6.84;81.29
46392;BME280;32098;49.448;7.904;2024-01-25T06:52:44;99527.41;;;6.84;81.00
46392;BME280;32098;49.448;7.904;2024-01-25T06:55:11;99498.94;;;6.70;81.61
46392;BME280;32098;49.448;7.904;2024-01-25T06:57:38;99518.16;;;6.80;81.85
46392;BME280;32098;49.448;7.904;2024-01-25T07:00:06;99517.50;;;6.86;81.60
46392;BME280;32098;49.448;7.904;2024-01-25T07:02:33;99513.38;;;6.84;81.60
46392;BME280;32098;49.448;7.904;2024-01-25T07:05:00;99516.84;;;6.92;81.67
46392;BME280;32098;49.448;7.904;2024-01-25T07:07:28;99512.56;;;6.91;81.91
46392;BME280;32098;49.448;7.904;2024-01-25T07:09:55;99521.00;;;6.95;81.42
46392;BME280;32098;49.448;7.904;2024-01-25T07:12:22;99516.69;;;7.02;80.76
46392;BME280;32098;49.448;7.904;2024-01-25T07:14:49;99516.56;;;7.03;81.36
46392;BME280;32098;49.448;7.904;2024-01-25T07:17:15;99513.25;;;7.01;80.70
46392;BME280;32098;49.448;7.904;2024-01-25T07:19:42;99514.88;;;7.02;80.99
46392;BME280;32098;49.448;7.904;2024-01-25T07:22:09;99517.03;;;7.07;80.31
46392;BME280;32098;49.448;7.904;2024-01-25T07:24:38;99516.88;;;7.00;81.27
46392;BME280;32098;49.448;7.904;2024-01-25T07:27:04;99508.28;;;6.98;80.39
46392;BME280;32098;49.448;7.904;2024-01-25T07:29:31;99504.97;;;6.96;80.15
46392;BME280;32098;49.448;7.904;2024-01-25T07:31:58;99504.97;;;6.96;81.70
46392;BME280;32098;49.448;7.904;2024-01-25T07:34:25;99502.31;;;6.96;80.63
46392;BME280;32098;49.448;7.904;2024-01-25T07:36:52;99511.22;;;6.95;81.72
46392;BME280;32098;49.448;7.904;2024-01-25T07:39:18;99427.94;;;6.57;81.07
46392;BME280;32098;49.448;7.904;2024-01-25T07:41:45;99497.38;;;7.01;81.44
46392;BME280;32098;49.448;7.904;2024-01-25T07:44:12;99508.09;;;7.00;81.61
46392;BME280;32098;49.448;7.904;2024-01-25T07:46:39;99494.38;;;6.96;81.86
46392;BME280;32098;49.448;7.904;2024-01-25T07:49:06;99500.69;;;7.11;82.37
46392;BME280;32098;49.448;7.904;2024-01-25T07:51:33;99511.28;;;7.19;81.36
46392;BME280;32098;49.448;7.904;2024-01-25T07:54:00;99515.25;;;7.23;82.40
46392;BME280;32098;49.448;7.904;2024-01-25T07:56:26;99516.13;;;7.32;81.54
46392;BME280;32098;49.448;7.904;2024-01-25T07:58:53;99516.13;;;7.40;81.25
46392;BME280;32098;49.448;7.904;2024-01-25T08:01:20;99507.34;;;7.48;81.48
46392;BME280;32098;49.448;7.904;2024-01-25T08:03:47;99512.34;;;7.59;81.45
46392;BME280;32098;49.448;7.904;2024-01-25T08:06:14;99506.53;;;7.71;81.51
46392;BME280;32098;49.448;7.904;2024-01-25T08:08:41;99490.78;;;7.70;80.15
46392;BME280;32098;49.448;7.904;2024-01-25T08:11:08;99506.16;;;7.98;79.68
46392;BME280;32098;49.448;7.904;2024-01-25T08:13:35;99517.53;;;8.15;78.71
46392;BME280;32098;49.448;7.904;2024-01-25T08:16:01;99504.91;;;8.25;77.74
46392;BME280;32098;49.448;7.904;2024-01-25T08:18:28;99518.28;;;8.40;77.13
46392;BME280;32098;49.448;7.904;2024-01-25T08:20:56;99514.44;;;8.50;77.03
46392;BME280;32098;49.448;7.904;2024-01-25T08:23:23;99518.09;;;8.49;75.01
46392;BME280;32098;49.448;7.904;2024-01-25T08:25:50;99519.53;;;8.60;75.45
46392;BME280;32098;49.448;7.904;2024-01-25T08:28:17;99513.97;;;8.86;75.13
46392;BME280;32098;49.448;7.904;2024-01-25T08:30:43;99524.44;;;9.10;74.91
46392;BME280;32098;49.448;7.904;2024-01-25T08:33:10;99516.47;;;9.41;74.79
46392;BME280;32098;49.448;7.904;2024-01-25T08:35:37;99500.56;;;9.55;73.83
46392;BME280;32098;49.448;7.904;2024-01-25T08:38:06;99513.84;;;9.92;72.65
46392;BME280;32098;49.448;7.904;2024-01-25T08:40:33;99527.84;;;10.24;72.17
46392;BME280;32098;49.448;7.904;2024-01-25T08:43:00;99520.75;;;10.45;71.42
46392;BME280;32098;49.448;7.904;2024-01-25T08:45:27;99526.34;;;10.65;70.28
46392;BME280;32098;49.448;7.904;2024-01-25T08:47:53;99528.03;;;10.81;69.63
46392;BME280;32098;49.448;7.904;2024-01-25T08:50:20;99520.66;;;10.97;68.74
46392;BME280;32098;49.448;7.904;2024-01-25T08:52:49;99520.63;;;11.12;68.11
46392;BME280;32098;49.448;7.904;2024-01-25T08:55:16;99517.25;;;11.25;67.29
46392;BME280;32098;49.448;7.904;2024-01-25T08:57:42;99520.69;;;11.40;66.86
46392;BME280;32098;49.448;7.904;2024-01-25T09:00:09;99515.47;;;11.53;65.96
46392;BME280;32098;49.448;7.904;2024-01-25T09:02:37;99513.97;;;11.65;65.54
46392;BME280;32098;49.448;7.904;2024-01-25T09:05:07;99523.97;;;11.84;65.48
46392;BME280;32098;49.448;7.904;2024-01-25T09:07:35;99517.94;;;12.03;65.21
46392;BME280;32098;49.448;7.904;2024-01-25T09:10:02;99536.00;;;12.22;64.58
46392;BME280;32098;49.448;7.904;2024-01-25T09:12:31;99524.75;;;12.33;63.73
46392;BME280;32098;49.448;7.904;2024-01-25T09:14:57;99522.38;;;12.45;63.43
46392;BME280;32098;49.448;7.904;2024-01-25T09:17:24;99522.84;;;12.55;62.65
46392;BME280;32098;49.448;7.904;2024-01-25T09:19:51;99527.75;;;12.52;62.48
46392;BME280;32098;49.448;7.904;2024-01-25T09:22:18;99526.91;;;12.51;62.44
46392;BME280;32098;49.448;7.904;2024-01-25T09:24:46;99514.38;;;12.52;62.56
46392;BME280;32098;49.448;7.904;2024-01-25T09:27:14;99513.63;;;12.58;62.46
46392;BME280;32098;49.448;7.904;2024-01-25T09:29:42;99518.50;;;12.47;62.59
46392;BME280;32098;49.448;7.904;2024-01-25T09:32:09;99524.84;;;12.46;62.12
46392;BME280;32098;49.448;7.904;2024-01-25T09:34:37;99533.09;;;12.52;62.52
46392;BME280;32098;49.448;7.904;2024-01-25T09:37:07;99530.84;;;12.55;62.26
46392;BME280;32098;49.448;7.904;2024-01-25T09:39:34;99535.22;;;12.63;61.98
46392;BME280;32098;49.448;7.904;2024-01-25T09:42:03;99530.34;;;12.73;61.74
46392;BME280;32098;49.448;7.904;2024-01-25T09:44:31;99528.31;;;12.88;61.20
46392;BME280;32098;49.448;7.904;2024-01-25T09:46:58;99534.56;;;13.01;61.28
46392;BME280;32098;49.448;7.904;2024-01-25T09:49:25;99492.16;;;12.92;61.17
46392;BME280;32098;49.448;7.904;2024-01-25T09:51:52;99529.66;;;13.18;60.35
46392;BME280;32098;49.448;7.904;2024-01-25T09:54:21;99512.81;;;13.18;60.21
46392;BME280;32098;49.448;7.904;2024-01-25T09:56:49;99535.50;;;13.41;59.64
46392;BME280;32098;49.448;7.904;2024-01-25T09:59:17;99529.16;;;13.42;59.59
46392;BME280;32098;49.448;7.904;2024-01-25T10:01:44;99531.44;;;13.52;58.99
46392;BME280;32098;49.448;7.904;2024-01-25T10:04:10;99531.00;;;13.48;58.82
46392;BME280;32098;49.448;7.904;2024-01-25T10:06:37;99539.25;;;13.53;58.28
46392;BME280;32098;49.448;7.904;2024-01-25T10:09:04;99527.31;;;13.62;58.45
46392;BME280;32098;49.448;7.904;2024-01-25T10:11:34;99531.66;;;13.70;58.34
46392;BME280;32098;49.448;7.904;2024-01-25T10:14:07;99538.03;;;13.75;57.95
46392;BME280;32098;49.448;7.904;2024-01-25T10:16:35;99527.75;;;13.79;57.72
46392;BME280;32098;49.448;7.904;2024-01-25T10:19:06;99529.78;;;13.84;57.73
46392;BME280;32098;49.448;7.904;2024-01-25T10:21:35;99512.28;;;13.61;56.48
46392;BME280;32098;49.448;7.904;2024-01-25T10:24:05;99528.16;;;13.76;56.92
46392;BME280;32098;49.448;7.904;2024-01-25T10:26:34;99525.06;;;13.66;57.09
46392;BME280;32098;49.448;7.904;2024-01-25T10:29:01;99528.75;;;13.52;56.87
46392;BME280;32098;49.448;7.904;2024-01-25T10:31:30;99524.19;;;13.39;57.77
46392;BME280;32098;49.448;7.904;2024-01-25T10:33:59;99524.28;;;13.05;57.36
46392;BME280;32098;49.448;7.904;2024-01-25T10:36:27;99510.41;;;12.75;58.34
46392;BME280;32098;49.448;7.904;2024-01-25T10:38:54;99516.78;;;12.81;58.26
46392;BME280;32098;49.448;7.904;2024-01-25T10:41:23;99518.84;;;12.79;58.97
46392;BME280;32098;49.448;7.904;2024-01-25T10:43:51;99510.19;;;12.77;58.77
46392;BME280;32098;49.448;7.904;2024-01-25T10:46:18;99518.91;;;12.92;58.60
46392;BME280;32098;49.448;7.904;2024-01-25T10:48:46;99537.22;;;12.95;58.63
46392;BME280;32098;49.448;7.904;2024-01-25T10:51:13;99521.81;;;13.03;58.59
46392;BME280;32098;49.448;7.904;2024-01-25T10:53:45;99520.63;;;13.12;59.00
46392;BME280;32098;49.448;7.904;2024-01-25T10:56:12;99526.81;;;13.20;58.58
46392;BME280;32098;49.448;7.904;2024-01-25T10:58:41;99523.50;;;13.24;58.78
46392;BME280;32098;49.448;7.904;2024-01-25T11:01:09;99515.66;;;13.16;58.53
46392;BME280;32098;49.448;7.904;2024-01-25T11:03:42;99474.72;;;13.02;58.48
46392;BME280;32098;49.448;7.904;2024-01-25T11:06:11;99509.16;;;13.32;58.84
46392;BME280;32098;49.448;7.904;2024-01-25T11:08:39;99516.50;;;13.23;58.83
46392;BME280;32098;49.448;7.904;2024-01-25T11:11:07;99507.06;;;13.27;58.58
46392;BME280;32098;49.448;7.904;2024-01-25T11:13:37;99502.03;;;12.98;59.18
46392;BME280;32098;49.448;7.904;2024-01-25T11:16:28;99502.63;;;12.87;59.06
46392;BME280;32098;49.448;7.904;2024-01-25T11:18:58;99497.06;;;12.88;58.70
46392;BME280;32098;49.448;7.904;2024-01-25T11:21:45;99488.03;;;12.89;58.76
46392;BME280;32098;49.448;7.904;2024-01-25T11:24:19;99490.88;;;12.75;59.10
46392;BME280;32098;49.448;7.904;2024-01-25T11:26:46;99494.56;;;12.74;59.18
46392;BME280;32098;49.448;7.904;2024-01-25T11:29:17;99486.97;;;12.77;59.36
46392;BME280;32098;49.448;7.904;2024-01-25T11:31:45;99462.28;;;12.69;58.73
46392;BME280;32098;49.448;7.904;2024-01-25T11:34:13;99487.00;;;12.84;59.46
46392;BME280;32098;49.448;7.904;2024-01-25T11:36:42;99483.09;;;12.93;59.42
46392;BME280;32098;49.448;7.904;2024-01-25T11:39:09;99490.50;;;12.91;60.29
46392;BME280;32098;49.448;7.904;2024-01-25T11:41:38;99491.94;;;12.87;60.32
46392;BME280;32098;49.448;7.904;2024-01-25T11:44:05;99469.69;;;12.73;59.58
46392;BME280;32098;49.448;7.904;2024-01-25T11:46:31;99482.44;;;12.78;58.54
46392;BME280;32098;49.448;7.904;2024-01-25T11:49:03;99484.72;;;12.81;59.22
46392;BME280;32098;49.448;7.904;2024-01-25T11:51:30;99476.50;;;12.82;58.82
46392;BME280;32098;49.448;7.904;2024-01-25T11:53:57;99467.06;;;12.80;58.81
46392;BME280;32098;49.448;7.904;2024-01-25T11:56:27;99475.66;;;12.75;58.21
46392;BME280;32098;49.448;7.904;2024-01-25T11:58:54;99458.38;;;12.78;58.31
46392;BME280;32098;49.448;7.904;2024-01-25T12:01:24;99451.00;;;12.80;58.31
46392;BME280;32098;49.448;7.904;2024-01-25T12:03:53;99459.19;;;12.72;57.82
46392;BME280;32098;49.448;7.904;2024-01-25T12:06:20;99453.00;;;12.65;57.96
46392;BME280;32098;49.448;7.904;2024-01-25T12:08:48;99460.00;;;12.66;58.46
46392;BME280;32098;49.448;7.904;2024-01-25T12:11:15;99421.66;;;12.39;58.14
46392;BME280;32098;49.448;7.904;2024-01-25T12:13:43;99453.34;;;12.48;58.14
46392;BME280;32098;49.448;7.904;2024-01-25T12:16:11;99443.88;;;12.46;58.01
46392;BME280;32098;49.448;7.904;2024-01-25T12:18:41;99434.19;;;12.38;57.96
46392;BME280;32098;49.448;7.904;2024-01-25T12:21:10;99422.50;;;12.39;57.94
46392;BME280;32098;49.448;7.904;2024-01-25T12:23:38;99421.00;;;12.30;57.93
46392;BME280;32098;49.448;7.904;2024-01-25T12:26:09;99414.19;;;12.21;58.01
46392;BME280;32098;49.448;7.904;2024-01-25T12:28:40;99387.31;;;11.95;58.53
46392;BME280;32098;49.448;7.904;2024-01-25T12:31:07;99411.69;;;12.13;58.76
46392;BME280;32098;49.448;7.904;2024-01-25T12:33:35;99396.28;;;12.15;58.80
46392;BME280;32098;49.448;7.904;2024-01-25T12:36:03;99411.91;;;12.18;58.90
46392;BME280;32098;49.448;7.904;2024-01-25T12:38:30;99404.13;;;12.17;59.13
46392;BME280;32098;49.448;7.904;2024-01-25T12:41:01;99371.72;;;11.92;59.47
46392;BME280;32098;49.448;7.904;2024-01-25T12:43:29;99403.91;;;12.18;59.35
46392;BME280;32098;49.448;7.904;2024-01-25T12:45:56;99398.53;;;12.12;60.02
46392;BME280;32098;49.448;7.904;2024-01-25T12:48:34;99392.31;;;12.05;59.53
46392;BME280;32098;49.448;7.904;2024-01-25T12:51:01;99391.75;;;12.09;58.97
46392;BME280;32098;49.448;7.904;2024-01-25T12:53:28;99385.59;;;12.09;59.22
46392;BME280;32098;49.448;7.904;2024-01-25T12:55:55;99381.47;;;12.06;60.09
46392;BME280;32098;49.448;7.904;2024-01-25T12:58:22;99379.53;;;12.00;59.52
46392;BME280;32098;49.448;7.904;2024-01-25T13:00:48;99378.31;;;12.03;60.07
46392;BME280;32098;49.448;7.904;2024-01-25T13:03:15;99386.31;;;11.96;60.61
46392;BME280;32098;49.448;7.904;2024-01-25T13:05:42;99381.97;;;11.95;60.86
46392;BME280;32098;49.448;7.904;2024-01-25T13:08:09;99377.06;;;11.92;60.60